createdAt,value
2018-09-29T00:01:28.641Z,99.90
2018-09-29T00:03:57.120Z,99.90
2018-09-29T00:06:25.695Z,99.90
2018-09-29T00:08:54.241Z,99.90
2018-09-29T00:11:22.842Z,99.90
2018-09-29T00:13:51.360Z,99.90
2018-09-29T00:16:19.940Z,99.90
2018-09-29T00:18:48.962Z,99.90
2018-09-29T00:21:17.691Z,99.90
2018-09-29T00:23:46.274Z,99.90
2018-09-29T00:26:14.763Z,99.90
2018-09-29T00:28:43.278Z,99.90
2018-09-29T00:31:11.812Z,99.90
2018-09-29T00:33:40.368Z,99.90
2018-09-29T00:36:08.946Z,99.90
2018-09-29T00:38:37.481Z,99.90
2018-09-29T00:41:06.088Z,99.90
2018-09-29T00:43:34.822Z,99.90
2018-09-29T00:46:03.556Z,99.90
2018-09-29T00:48:32.182Z,99.90
2018-09-29T00:51:00.725Z,99.90
2018-09-29T00:53:29.269Z,99.90
2018-09-29T00:55:57.750Z,99.90
2018-09-29T00:58:26.270Z,99.90
2018-09-29T01:00:54.821Z,99.90
2018-09-29T01:03:23.334Z,99.90
2018-09-29T01:05:51.855Z,99.90
2018-09-29T01:08:20.334Z,99.90
2018-09-29T01:10:48.882Z,99.90
2018-09-29T01:13:17.339Z,99.90
2018-09-29T01:15:45.837Z,99.90
2018-09-29T01:18:14.273Z,99.90
2018-09-29T01:20:42.812Z,99.90
2018-09-29T01:23:11.261Z,99.90
2018-09-29T01:25:39.814Z,99.90
2018-09-29T01:28:08.286Z,99.90
2018-09-29T01:30:36.769Z,99.90
2018-09-29T01:33:05.237Z,99.90
2018-09-29T01:35:33.834Z,99.90
2018-09-29T01:38:02.392Z,99.90
2018-09-29T01:40:31.078Z,99.90
2018-09-29T01:42:59.601Z,99.90
2018-09-29T01:45:28.069Z,99.90
2018-09-29T01:47:56.551Z,99.90
2018-09-29T01:50:24.993Z,99.90
2018-09-29T01:52:53.470Z,99.90
2018-09-29T01:55:21.938Z,99.90
2018-09-29T01:57:50.461Z,99.90
2018-09-29T02:00:18.909Z,99.90
2018-09-29T02:02:47.431Z,99.90
2018-09-29T02:05:15.964Z,99.90
2018-09-29T02:07:44.533Z,99.90
2018-09-29T02:10:13.176Z,99.90
2018-09-29T02:12:41.699Z,99.90
2018-09-29T02:15:10.458Z,99.90
2018-09-29T02:17:38.974Z,99.90
2018-09-29T02:20:08.008Z,99.90
2018-09-29T02:22:36.503Z,99.90
2018-09-29T02:25:05.080Z,99.90
2018-09-29T02:27:33.532Z,99.90
2018-09-29T02:30:02.027Z,99.90
2018-09-29T02:32:30.492Z,99.90
2018-09-29T02:34:59.008Z,99.90
2018-09-29T02:37:27.566Z,99.90
2018-09-29T02:39:56.120Z,99.90
2018-09-29T02:42:24.669Z,99.90
2018-09-29T02:44:53.187Z,99.90
2018-09-29T02:47:21.625Z,99.90
2018-09-29T02:49:51.182Z,99.90
2018-09-29T02:52:19.653Z,99.90
2018-09-29T02:54:48.401Z,99.90
2018-09-29T02:57:16.997Z,99.90
2018-09-29T02:59:45.717Z,99.90
2018-09-29T03:02:14.315Z,99.90
2018-09-29T03:04:42.832Z,99.90
2018-09-29T03:07:11.422Z,99.90
2018-09-29T03:09:39.898Z,99.90
2018-09-29T03:12:08.477Z,99.90
2018-09-29T03:14:37.039Z,99.90
2018-09-29T03:17:05.200Z,99.90
2018-09-29T03:19:33.727Z,99.90
2018-09-29T03:22:02.351Z,99.90
2018-09-29T03:24:30.834Z,99.90
2018-09-29T03:26:59.432Z,99.90
2018-09-29T03:29:27.926Z,99.90
2018-09-29T03:31:56.464Z,99.90
2018-09-29T03:34:25.077Z,99.90
2018-09-29T03:36:53.668Z,99.90
2018-09-29T03:39:22.179Z,99.90
2018-09-29T03:41:50.748Z,99.90
2018-09-29T03:44:19.243Z,99.90
2018-09-29T03:46:47.772Z,99.90
2018-09-29T03:49:16.332Z,99.90
2018-09-29T03:51:44.796Z,99.90
2018-09-29T03:54:13.268Z,99.90
2018-09-29T03:56:41.782Z,99.90
2018-09-29T03:59:10.320Z,99.90
2018-09-29T04:01:38.770Z,99.90
2018-09-29T04:04:07.329Z,99.90
2018-09-29T04:06:35.791Z,99.90
2018-09-29T04:09:05.298Z,99.90
2018-09-29T04:11:33.738Z,99.90
2018-09-29T04:14:02.354Z,99.90
2018-09-29T04:16:30.737Z,99.90
2018-09-29T04:18:59.396Z,99.90
2018-09-29T04:21:32.180Z,99.90
2018-09-29T04:24:00.669Z,99.90
2018-09-29T04:26:29.342Z,99.90
2018-09-29T04:28:57.924Z,99.90
2018-09-29T04:31:26.554Z,99.90
2018-09-29T04:33:55.049Z,99.90
2018-09-29T04:36:23.613Z,99.90
2018-09-29T04:38:52.113Z,99.90
2018-09-29T04:41:20.668Z,99.90
2018-09-29T04:43:49.155Z,99.90
2018-09-29T04:46:17.626Z,99.90
2018-09-29T04:48:46.073Z,99.90
2018-09-29T04:51:14.588Z,99.90
2018-09-29T04:53:43.337Z,99.90
2018-09-29T04:56:11.834Z,99.90
2018-09-29T04:58:40.505Z,99.90
2018-09-29T05:01:09.080Z,99.90
2018-09-29T05:03:37.591Z,99.90
2018-09-29T05:06:06.152Z,99.90
2018-09-29T05:08:34.693Z,99.90
2018-09-29T05:11:03.805Z,99.90
2018-09-29T05:13:32.296Z,99.90
2018-09-29T05:16:00.920Z,99.90
2018-09-29T05:18:29.388Z,99.90
2018-09-29T05:20:57.929Z,99.90
2018-09-29T05:23:26.381Z,99.90
2018-09-29T05:25:54.947Z,99.90
2018-09-29T05:28:23.410Z,99.90
2018-09-29T05:30:51.922Z,99.90
2018-09-29T05:33:20.400Z,99.90
2018-09-29T05:35:48.938Z,99.90
2018-09-29T05:38:17.393Z,99.90
2018-09-29T05:40:45.940Z,99.90
2018-09-29T05:43:14.522Z,99.90
2018-09-29T05:45:43.035Z,99.90
2018-09-29T05:48:11.576Z,99.90
2018-09-29T05:50:40.176Z,99.90
2018-09-29T05:53:08.651Z,99.90
2018-09-29T05:55:37.159Z,99.90
2018-09-29T05:58:05.676Z,99.90
2018-09-29T06:00:34.193Z,99.90
2018-09-29T06:03:02.673Z,99.90
2018-09-29T06:05:31.234Z,99.90
2018-09-29T06:07:59.812Z,99.90
2018-09-29T06:10:28.374Z,99.90
2018-09-29T06:12:56.876Z,99.90
2018-09-29T06:15:25.402Z,99.90
2018-09-29T06:17:53.898Z,99.90
2018-09-29T06:20:22.436Z,99.90
2018-09-29T06:22:51.371Z,99.90
2018-09-29T06:25:20.175Z,99.90
2018-09-29T06:27:48.928Z,99.90
2018-09-29T06:30:18.107Z,99.90
2018-09-29T06:32:46.767Z,99.90
2018-09-29T06:35:15.392Z,99.90
2018-09-29T06:37:43.939Z,99.90
2018-09-29T06:40:12.651Z,99.90
2018-09-29T06:42:41.258Z,99.90
2018-09-29T06:45:09.885Z,99.90
2018-09-29T06:47:38.716Z,99.90
2018-09-29T06:50:07.350Z,99.90
2018-09-29T06:52:35.940Z,99.90
2018-09-29T06:55:04.548Z,99.90
2018-09-29T06:57:33.127Z,99.90
2018-09-29T07:00:01.785Z,99.90
2018-09-29T07:02:30.401Z,99.90
2018-09-29T07:04:59.419Z,99.90
2018-09-29T07:07:28.217Z,99.90
2018-09-29T07:09:56.844Z,99.90
2018-09-29T07:12:25.627Z,99.90
2018-09-29T07:14:54.328Z,99.90
2018-09-29T07:17:22.948Z,99.90
2018-09-29T07:19:51.465Z,99.90
2018-09-29T07:22:20.017Z,99.90
2018-09-29T07:24:48.845Z,99.90
2018-09-29T07:27:17.386Z,99.90
2018-09-29T07:29:46.110Z,99.90
2018-09-29T07:32:14.832Z,99.90
2018-09-29T07:34:43.435Z,99.90
2018-09-29T07:37:12.111Z,99.90
2018-09-29T07:39:40.730Z,99.90
2018-09-29T07:42:09.380Z,99.90
2018-09-29T07:44:37.950Z,99.90
2018-09-29T07:47:06.623Z,99.90
2018-09-29T07:49:35.274Z,99.90
2018-09-29T07:52:03.912Z,99.90
2018-09-29T07:54:32.618Z,99.90
2018-09-29T07:57:01.689Z,99.50
2018-09-29T07:59:30.257Z,98.40
2018-09-29T08:01:58.960Z,97.20
2018-09-29T08:04:27.530Z,97.10
2018-09-29T08:06:56.118Z,97.20
2018-09-29T08:09:24.720Z,97.20
2018-09-29T08:11:53.423Z,97.20
2018-09-29T08:14:22.103Z,97.60
2018-09-29T08:16:50.657Z,98.20
2018-09-29T08:19:19.272Z,99.30
2018-09-29T08:21:47.851Z,98.50
2018-09-29T08:24:16.771Z,96.80
2018-09-29T08:26:45.848Z,95.90
2018-09-29T08:29:14.384Z,96.60
2018-09-29T08:31:43.071Z,95.60
2018-09-29T08:34:11.649Z,98.00
2018-09-29T08:36:40.573Z,97.70
2018-09-29T08:39:10.111Z,97.70
2018-09-29T08:41:38.975Z,97.20
2018-09-29T08:44:07.582Z,96.90
2018-09-29T08:46:36.244Z,96.90
2018-09-29T08:49:04.901Z,98.20
2018-09-29T08:51:33.416Z,99.00
2018-09-29T08:54:02.082Z,98.60
2018-09-29T08:56:30.687Z,96.70
2018-09-29T08:58:59.232Z,95.70
2018-09-29T09:01:27.880Z,94.70
2018-09-29T09:03:56.381Z,93.70
2018-09-29T09:06:24.910Z,92.60
2018-09-29T09:08:53.466Z,92.30
2018-09-29T09:11:22.054Z,93.40
2018-09-29T09:13:50.606Z,92.50
2018-09-29T09:16:19.230Z,92.40
2018-09-29T09:18:47.757Z,92.20
2018-09-29T09:21:16.332Z,94.30
2018-09-29T09:23:44.949Z,94.80
2018-09-29T09:26:13.903Z,97.60
2018-09-29T09:28:42.550Z,96.10
2018-09-29T09:31:11.212Z,94.80
2018-09-29T09:33:39.876Z,96.60
2018-09-29T09:36:08.449Z,97.70
2018-09-29T09:38:37.119Z,97.30
2018-09-29T09:41:05.859Z,98.50
2018-09-29T09:43:34.495Z,98.40
2018-09-29T09:46:03.326Z,97.50
2018-09-29T09:48:31.888Z,97.20
2018-09-29T09:51:00.437Z,95.20
2018-09-29T09:53:29.022Z,93.00
2018-09-29T09:55:57.671Z,91.80
2018-09-29T09:58:26.221Z,93.50
2018-09-29T10:01:00.157Z,91.80
2018-09-29T10:03:30.744Z,91.80
2018-09-29T10:05:59.490Z,89.90
2018-09-29T10:08:28.203Z,86.50
2018-09-29T10:10:56.817Z,87.70
2018-09-29T10:13:25.473Z,90.50
2018-09-29T10:15:54.224Z,93.50
2018-09-29T10:18:22.932Z,93.30
2018-09-29T10:20:51.618Z,91.40
2018-09-29T10:23:20.189Z,89.90
2018-09-29T10:25:48.736Z,90.60
2018-09-29T10:28:17.335Z,88.70
2018-09-29T10:30:45.888Z,87.50
2018-09-29T10:33:14.463Z,88.30
2018-09-29T10:35:43.027Z,90.40
2018-09-29T10:38:11.738Z,89.60
2018-09-29T10:40:40.275Z,90.40
2018-09-29T10:43:08.849Z,90.00
2018-09-29T10:45:37.493Z,86.50
2018-09-29T10:48:06.081Z,84.50
2018-09-29T10:50:34.834Z,82.60
2018-09-29T10:53:03.538Z,80.70
2018-09-29T10:55:32.382Z,81.00
2018-09-29T10:58:01.141Z,79.40
2018-09-29T11:00:29.771Z,77.70
2018-09-29T11:02:58.498Z,76.90
2018-09-29T11:05:27.112Z,78.60
2018-09-29T11:07:58.743Z,75.90
2018-09-29T11:10:27.357Z,74.90
2018-09-29T11:12:56.006Z,76.10
2018-09-29T11:15:24.611Z,80.70
2018-09-29T11:17:53.116Z,80.80
2018-09-29T11:20:21.785Z,79.30
2018-09-29T11:22:50.308Z,78.00
2018-09-29T11:25:19.124Z,76.60
2018-09-29T11:27:47.750Z,75.90
2018-09-29T11:30:16.478Z,73.30
2018-09-29T11:32:44.961Z,72.20
2018-09-29T11:35:13.722Z,72.30
2018-09-29T11:37:42.531Z,71.40
2018-09-29T11:40:11.315Z,70.60
2018-09-29T11:42:40.069Z,72.30
2018-09-29T11:45:08.846Z,71.90
2018-09-29T11:47:37.478Z,70.50
2018-09-29T11:50:06.162Z,67.00
2018-09-29T11:52:34.905Z,65.10
2018-09-29T11:55:03.892Z,65.90
2018-09-29T11:57:32.576Z,66.40
2018-09-29T12:00:01.267Z,67.60
2018-09-29T12:02:29.964Z,66.80
2018-09-29T12:04:58.743Z,66.80
2018-09-29T12:07:27.475Z,64.00
2018-09-29T12:09:55.998Z,64.90
2018-09-29T12:12:24.647Z,64.90
2018-09-29T12:14:53.265Z,66.60
2018-09-29T12:17:21.859Z,63.60
2018-09-29T12:19:50.449Z,65.80
2018-09-29T12:22:19.213Z,65.40
2018-09-29T12:24:47.971Z,64.50
2018-09-29T12:27:16.566Z,65.70
2018-09-29T12:29:45.319Z,65.30
2018-09-29T12:32:14.047Z,64.80
2018-09-29T12:34:43.515Z,66.00
2018-09-29T12:37:12.783Z,66.60
2018-09-29T12:39:41.240Z,70.50
2018-09-29T12:42:09.948Z,68.50
2018-09-29T12:44:38.609Z,66.20
2018-09-29T12:47:07.424Z,66.40
2018-09-29T12:49:35.986Z,67.30
2018-09-29T12:52:04.844Z,70.50
2018-09-29T12:54:33.360Z,74.60
2018-09-29T12:57:02.348Z,76.00
2018-09-29T12:59:31.266Z,72.40
2018-09-29T13:01:59.883Z,77.80
2018-09-29T13:04:28.540Z,78.80
2018-09-29T13:06:57.188Z,79.80
2018-09-29T13:09:25.935Z,80.40
2018-09-29T13:11:54.661Z,76.90
2018-09-29T13:14:23.407Z,77.80
2018-09-29T13:16:52.137Z,80.30
2018-09-29T13:19:21.813Z,79.80
2018-09-29T13:21:50.557Z,79.20
2018-09-29T13:24:19.217Z,80.70
2018-09-29T13:26:48.015Z,80.70
2018-09-29T13:29:16.643Z,81.20
2018-09-29T13:31:45.419Z,81.80
2018-09-29T13:34:14.342Z,78.40
2018-09-29T13:36:43.678Z,79.10
2018-09-29T13:39:12.424Z,75.80
2018-09-29T13:41:41.053Z,76.70
2018-09-29T13:44:09.600Z,75.70
2018-09-29T13:46:38.223Z,75.30
2018-09-29T13:49:06.817Z,77.50
2018-09-29T13:51:35.730Z,76.00
2018-09-29T13:54:04.376Z,77.20
2018-09-29T13:56:33.111Z,77.40
2018-09-29T13:59:01.914Z,78.50
2018-09-29T14:01:30.687Z,77.40
2018-09-29T14:03:59.491Z,77.40
2018-09-29T14:06:28.261Z,77.40
2018-09-29T14:08:56.811Z,78.50
2018-09-29T14:11:25.510Z,79.20
2018-09-29T14:13:54.207Z,78.20
2018-09-29T14:16:23.068Z,76.80
2018-09-29T14:18:51.648Z,77.40
2018-09-29T14:21:20.263Z,78.70
2018-09-29T14:23:48.834Z,79.10
2018-09-29T14:26:17.416Z,78.80
2018-09-29T14:28:46.168Z,80.40
2018-09-29T14:31:14.743Z,81.10
2018-09-29T14:33:43.560Z,81.40
2018-09-29T14:36:12.509Z,81.00
2018-09-29T14:38:41.180Z,81.10
2018-09-29T14:41:10.028Z,81.10
2018-09-29T14:43:38.879Z,80.80
2018-09-29T14:46:07.959Z,81.10
2018-09-29T14:48:36.646Z,81.30
2018-09-29T14:51:05.364Z,82.00
2018-09-29T14:53:33.926Z,81.60
2018-09-29T14:56:02.704Z,79.60
2018-09-29T14:58:31.275Z,76.90
2018-09-29T15:00:59.871Z,72.20
2018-09-29T15:03:28.455Z,73.50
2018-09-29T15:05:57.113Z,78.70
2018-09-29T15:08:25.798Z,80.30
2018-09-29T15:10:54.435Z,80.70
2018-09-29T15:13:23.252Z,81.10
2018-09-29T15:15:51.941Z,81.00
2018-09-29T15:18:20.541Z,81.20
2018-09-29T15:20:49.270Z,81.40
2018-09-29T15:23:18.084Z,79.90
2018-09-29T15:25:46.683Z,80.10
2018-09-29T15:28:15.319Z,79.80
2018-09-29T15:30:44.131Z,80.60
2018-09-29T15:33:13.942Z,80.10
2018-09-29T15:35:43.469Z,80.70
2018-09-29T15:38:12.111Z,80.50
2018-09-29T15:40:40.741Z,80.20
2018-09-29T15:43:09.341Z,80.70
2018-09-29T15:45:38.064Z,80.00
2018-09-29T15:48:06.686Z,79.70
2018-09-29T15:50:35.258Z,78.50
2018-09-29T15:53:04.029Z,78.70
2018-09-29T15:55:32.630Z,78.10
2018-09-29T15:58:01.294Z,78.80
2018-09-29T16:00:29.899Z,79.30
2018-09-29T16:02:58.621Z,80.20
2018-09-29T16:05:27.278Z,80.70
2018-09-29T16:07:56.156Z,80.30
2018-09-29T16:10:24.742Z,81.70
2018-09-29T16:12:53.741Z,81.50
2018-09-29T16:15:22.623Z,81.90
2018-09-29T16:17:51.229Z,82.60
2018-09-29T16:20:19.861Z,83.40
2018-09-29T16:22:48.442Z,84.20
2018-09-29T16:25:17.158Z,85.10
2018-09-29T16:27:45.880Z,85.70
2018-09-29T16:30:14.566Z,86.40
2018-09-29T16:32:43.302Z,87.40
2018-09-29T16:35:12.173Z,88.40
2018-09-29T16:37:40.966Z,88.80
2018-09-29T16:40:09.786Z,89.60
2018-09-29T16:42:38.495Z,90.70
2018-09-29T16:45:07.867Z,90.10
2018-09-29T16:47:36.621Z,90.40
2018-09-29T16:50:05.692Z,90.90
2018-09-29T16:52:34.598Z,91.60
2018-09-29T16:55:03.424Z,91.50
2018-09-29T16:57:32.246Z,92.00
2018-09-29T17:00:01.097Z,92.50
2018-09-29T17:02:29.789Z,92.60
2018-09-29T17:04:58.554Z,92.80
2018-09-29T17:07:27.519Z,93.00
2018-09-29T17:09:56.382Z,93.40
2018-09-29T17:12:25.281Z,93.10
2018-09-29T17:14:54.229Z,93.30
2018-09-29T17:17:23.249Z,92.80
2018-09-29T17:19:52.204Z,93.50
2018-09-29T17:22:21.013Z,93.40
2018-09-29T17:24:49.796Z,92.80
2018-09-29T17:27:18.726Z,92.90
2018-09-29T17:29:47.609Z,93.00
2018-09-29T17:32:16.298Z,93.10
2018-09-29T17:34:44.992Z,92.70
2018-09-29T17:37:13.751Z,92.80
2018-09-29T17:39:42.620Z,92.40
2018-09-29T17:42:11.402Z,91.10
2018-09-29T17:44:40.582Z,90.90
2018-09-29T17:47:09.769Z,90.90
2018-09-29T17:49:39.720Z,90.70
2018-09-29T17:52:09.193Z,90.70
2018-09-29T17:54:38.054Z,90.70
2018-09-29T17:57:07.263Z,90.60
2018-09-29T17:59:36.041Z,90.70
2018-09-29T18:02:05.689Z,90.70
2018-09-29T18:04:34.709Z,91.00
2018-09-29T18:07:03.502Z,90.90
2018-09-29T18:09:33.569Z,91.40
2018-09-29T18:12:02.593Z,90.40
2018-09-29T18:14:32.180Z,90.30
2018-09-29T18:17:01.567Z,90.80
2018-09-29T18:19:31.991Z,90.60
2018-09-29T18:22:01.929Z,90.70
2018-09-29T18:24:31.339Z,91.00
2018-09-29T18:27:00.469Z,91.20
2018-09-29T18:29:30.362Z,91.70
2018-09-29T18:31:59.184Z,92.10
2018-09-29T18:34:28.205Z,91.90
2018-09-29T18:36:57.437Z,91.80
2018-09-29T18:39:26.244Z,92.10
2018-09-29T18:41:55.306Z,92.00
2018-09-29T18:44:24.143Z,92.50
2018-09-29T18:46:52.898Z,92.40
2018-09-29T18:49:21.898Z,93.00
2018-09-29T18:51:51.388Z,93.50
2018-09-29T18:54:20.298Z,93.90
2018-09-29T18:56:49.247Z,94.30
2018-09-29T18:59:18.543Z,94.60
2018-09-29T19:01:48.317Z,95.50
2018-09-29T19:04:18.416Z,95.60
2018-09-29T19:06:47.549Z,95.80
2018-09-29T19:09:16.531Z,96.00
2018-09-29T19:11:45.484Z,96.20
2018-09-29T19:14:15.338Z,96.60
2018-09-29T19:16:44.022Z,97.20
2018-09-29T19:19:12.729Z,98.30
2018-09-29T19:21:41.532Z,98.80
2018-09-29T19:24:10.659Z,99.70
2018-09-29T19:26:39.574Z,99.10
2018-09-29T19:29:08.436Z,99.80
2018-09-29T19:31:37.083Z,99.30
2018-09-29T19:34:06.011Z,99.40
2018-09-29T19:36:34.974Z,99.80
2018-09-29T19:39:05.208Z,99.90
2018-09-29T19:41:34.097Z,99.90
2018-09-29T19:44:02.863Z,99.90
2018-09-29T19:46:31.835Z,99.90
2018-09-29T19:49:00.934Z,99.90
2018-09-29T19:51:30.618Z,99.90
2018-09-29T19:53:59.580Z,99.90
2018-09-29T19:56:28.941Z,99.90
2018-09-29T19:58:57.736Z,99.90
2018-09-29T20:01:26.622Z,99.90
2018-09-29T20:03:55.375Z,99.90
2018-09-29T20:06:24.126Z,99.90
2018-09-29T20:08:52.754Z,99.90
2018-09-29T20:11:21.547Z,99.90
2018-09-29T20:13:50.078Z,99.90
2018-09-29T20:16:18.857Z,99.90
2018-09-29T20:18:47.602Z,99.90
2018-09-29T20:21:17.120Z,99.90
2018-09-29T20:23:45.898Z,99.90
2018-09-29T20:26:15.208Z,99.90
2018-09-29T20:28:43.954Z,99.90
2018-09-29T20:31:12.782Z,99.90
2018-09-29T20:33:41.448Z,99.90
2018-09-29T20:36:10.059Z,99.90
2018-09-29T20:38:38.715Z,99.90
2018-09-29T20:41:07.408Z,99.90
2018-09-29T20:43:36.726Z,99.90
2018-09-29T20:46:05.440Z,99.90
2018-09-29T20:48:34.320Z,99.90
2018-09-29T20:51:02.960Z,99.90
2018-09-29T20:53:32.094Z,99.90
2018-09-29T20:56:00.797Z,99.90
2018-09-29T20:58:29.841Z,99.90
2018-09-29T21:00:58.572Z,99.90
2018-09-29T21:03:27.200Z,99.90
2018-09-29T21:05:55.876Z,99.90
2018-09-29T21:08:24.516Z,99.90
2018-09-29T21:10:53.135Z,99.90
2018-09-29T21:13:22.050Z,99.90
2018-09-29T21:15:51.295Z,99.90
2018-09-29T21:18:19.991Z,99.90
2018-09-29T21:20:48.900Z,99.90
2018-09-29T21:23:17.999Z,99.90
2018-09-29T21:25:46.848Z,99.90
2018-09-29T21:28:15.573Z,99.90
2018-09-29T21:30:44.220Z,99.90
2018-09-29T21:33:12.915Z,99.90
2018-09-29T21:35:41.815Z,99.90
2018-09-29T21:38:10.405Z,99.90
2018-09-29T21:40:39.067Z,99.90
2018-09-29T21:43:07.668Z,99.90
2018-09-29T21:45:36.277Z,99.90
2018-09-29T21:48:04.844Z,99.90
2018-09-29T21:50:33.397Z,99.90
2018-09-29T21:53:02.016Z,99.90
2018-09-29T21:55:30.615Z,99.90
2018-09-29T21:57:59.239Z,99.90
2018-09-29T22:00:33.073Z,99.90
2018-09-29T22:03:01.662Z,99.90
2018-09-29T22:05:30.217Z,99.90
2018-09-29T22:07:58.808Z,99.90
2018-09-29T22:10:27.502Z,99.90
2018-09-29T22:12:56.075Z,99.90
2018-09-29T22:15:24.640Z,99.90
2018-09-29T22:17:53.204Z,99.90
2018-09-29T22:20:21.766Z,99.90
2018-09-29T22:22:50.365Z,99.90
2018-09-29T22:25:19.134Z,99.90
2018-09-29T22:27:47.627Z,99.90
2018-09-29T22:30:16.244Z,99.90
2018-09-29T22:32:44.822Z,99.90
2018-09-29T22:35:13.433Z,99.90
2018-09-29T22:37:42.002Z,99.90
2018-09-29T22:40:10.627Z,99.90
2018-09-29T22:42:39.203Z,99.90
2018-09-29T22:45:07.790Z,99.90
2018-09-29T22:47:36.279Z,99.90
2018-09-29T22:50:04.856Z,99.90
2018-09-29T22:52:33.591Z,99.90
2018-09-29T22:55:02.422Z,99.90
2018-09-29T22:57:31.093Z,99.90
2018-09-29T22:59:59.669Z,99.90
2018-09-29T23:02:28.263Z,99.90
2018-09-29T23:04:56.898Z,99.90
2018-09-29T23:07:25.465Z,99.90
2018-09-29T23:09:53.934Z,99.90
2018-09-29T23:12:22.424Z,99.90
2018-09-29T23:14:51.061Z,99.90
2018-09-29T23:17:19.561Z,99.90
2018-09-29T23:19:48.126Z,99.90
2018-09-29T23:22:16.660Z,99.90
2018-09-29T23:24:45.271Z,99.90
2018-09-29T23:27:13.844Z,99.90
2018-09-29T23:29:42.465Z,99.90
2018-09-29T23:32:11.089Z,99.90
2018-09-29T23:34:39.579Z,99.90
2018-09-29T23:37:08.066Z,99.90
2018-09-29T23:39:36.708Z,99.90
2018-09-29T23:42:05.312Z,99.90
2018-09-29T23:44:33.832Z,99.90
2018-09-29T23:47:02.404Z,99.90
2018-09-29T23:49:30.941Z,99.90
2018-09-29T23:51:59.522Z,99.90
2018-09-29T23:54:28.118Z,99.90
2018-09-29T23:56:56.616Z,99.90
2018-09-29T23:59:25.313Z,99.90
